Time;durP1;ratioP1;P1;durP2;ratioP2;P2;SDS_P1;SDS_P2;PMS_P1;PMS_P2;Temp;Humidity;BMP_temperature;BMP_pressure;BME280_temperature;BME280_humidity;BME280_pressure;Samples;Min_cycle;Max_cycle;Signal;HPM_P1;HPM_P2
2022/02/17 00:02:05;;;;;;;0.60;0.13;;;;;;;9.64;100.00;94879.78;5014836;28;20040;-81
2022/02/17 00:04:31;;;;;;;0.10;0.00;;;;;;;9.68;100.00;94883.66;5031068;28;20495;-80
2022/02/17 00:06:57;;;;;;;0.20;0.10;;;;;;;9.64;100.00;94879.78;5014938;28;20034;-80
2022/02/17 00:09:22;;;;;;;0.30;0.10;;;;;;;9.72;100.00;94875.41;5013350;28;20439;-81
2022/02/17 00:11:48;;;;;;;0.37;0.10;;;;;;;9.87;100.00;94863.84;5014533;28;20338;-80
2022/02/17 00:14:14;;;;;;;0.10;0.10;;;;;;;9.85;100.00;94888.66;5014367;28;20030;-82
2022/02/17 00:16:39;;;;;;;0.77;0.10;;;;;;;9.91;100.00;94887.91;5041309;28;20094;-80
2022/02/17 00:19:06;;;;;;;0.10;0.10;;;;;;;9.84;100.00;94868.66;5019605;28;20036;-80
2022/02/17 00:21:31;;;;;;;1.00;0.40;;;;;;;9.92;100.00;94868.53;5051506;28;20029;-81
2022/02/17 00:23:57;;;;;;;0.57;0.10;;;;;;;9.93;100.00;94870.19;5021268;28;20029;-82
2022/02/17 00:26:23;;;;;;;0.67;0.20;;;;;;;9.99;100.00;94855.47;5040214;28;20033;-83
2022/02/17 00:28:49;;;;;;;0.20;0.10;;;;;;;10.01;100.00;94859.53;5054715;28;20034;-79
2022/02/17 00:31:15;;;;;;;0.77;0.20;;;;;;;10.01;100.00;94856.91;5033185;28;20037;-80
2022/02/17 00:33:40;;;;;;;0.20;0.10;;;;;;;10.02;100.00;94861.16;5018305;28;20120;-80
2022/02/17 00:36:08;;;;;;;0.30;0.10;;;;;;;10.01;100.00;94828.00;5035071;28;20597;-80
2022/02/17 00:38:35;;;;;;;0.40;0.10;;;;;;;10.10;100.00;94816.38;5050375;28;20147;-80
2022/02/17 00:41:02;;;;;;;2.20;0.30;;;;;;;10.06;100.00;94820.38;5037767;28;20064;-80
2022/02/17 00:43:28;;;;;;;0.00;0.00;;;;;;;10.03;100.00;94814.72;5018057;28;20095;-80
2022/02/17 00:45:54;;;;;;;0.87;0.03;;;;;;;10.05;100.00;94813.50;5035090;28;20136;-78
2022/02/17 00:48:22;;;;;;;1.37;0.10;;;;;;;10.09;100.00;94812.13;5019077;28;20052;-81
2022/02/17 00:50:47;;;;;;;0.50;0.10;;;;;;;10.01;100.00;94809.63;5018419;28;20041;-80
2022/02/17 00:53:13;;;;;;;0.40;0.10;;;;;;;10.08;100.00;94828.88;5017891;28;20128;-80
2022/02/17 00:55:39;;;;;;;0.50;0.27;;;;;;;10.13;100.00;94813.38;5050513;28;20096;-80
2022/02/17 00:58:05;;;;;;;0.30;0.10;;;;;;;10.13;100.00;94813.38;5035959;28;20031;-80
2022/02/17 01:00:32;;;;;;;0.00;0.00;;;;;;;10.18;100.00;94817.22;5018566;28;20352;-81
2022/02/17 01:03:05;;;;;;;;;;;;;;;10.17;100.00;94811.16;5019899;28;20404;-80
2022/02/17 01:05:32;;;;;;;0.10;0.10;;;;;;;10.22;100.00;94802.69;5017932;28;19995;-81
2022/02/17 01:07:59;;;;;;;0.70;0.10;;;;;;;10.30;100.00;94794.72;5017781;28;20116;-80
2022/02/17 01:10:25;;;;;;;0.93;0.17;;;;;;;10.24;100.00;94774.44;5034913;28;20044;-80
2022/02/17 01:12:51;;;;;;;0.20;0.10;;;;;;;10.24;100.00;94769.19;5018142;28;20128;-81
2022/02/17 01:15:20;;;;;;;0.33;0.20;;;;;;;10.21;100.00;94777.44;5037742;28;20033;-80
2022/02/17 01:17:46;;;;;;;0.00;0.00;;;;;;;10.03;100.00;94798.94;5033759;28;20045;-80
2022/02/17 01:20:12;;;;;;;0.27;0.20;;;;;;;10.04;100.00;94801.38;5052417;28;20033;-80
2022/02/17 01:22:45;;;;;;;0.07;0.07;;;;;;;9.89;100.00;94808.50;5035723;28;20036;-82
2022/02/17 01:25:13;;;;;;;0.30;0.10;;;;;;;9.87;100.00;94816.59;5052184;28;20037;-80
2022/02/17 01:27:40;;;;;;;1.30;0.17;;;;;;;9.85;100.00;94828.28;5027209;28;20029;-81
2022/02/17 01:30:06;;;;;;;0.40;0.10;;;;;;;9.93;100.00;94825.53;5034897;28;20033;-81
2022/02/17 01:32:32;;;;;;;0.00;0.00;;;;;;;9.92;100.00;94829.13;5029719;28;20034;-83
2022/02/17 01:34:58;;;;;;;0.63;0.10;;;;;;;9.93;100.00;94824.72;5025564;28;20670;-80
2022/02/17 01:37:25;;;;;;;0.10;0.00;;;;;;;10.01;100.00;94833.25;5036098;28;20090;-81
2022/02/17 01:39:54;;;;;;;0.53;0.00;;;;;;;10.03;100.00;94812.88;5036676;28;20040;-80
2022/02/17 01:42:20;;;;;;;0.00;0.00;;;;;;;10.04;100.00;94814.50;5036203;28;20078;-80
2022/02/17 01:44:51;;;;;;;0.40;0.10;;;;;;;10.07;100.00;94800.19;5053537;28;20020;-80
2022/02/17 01:47:18;;;;;;;0.00;0.00;;;;;;;10.08;100.00;94801.78;5036812;28;20501;-79
2022/02/17 01:49:47;;;;;;;0.03;0.03;;;;;;;10.15;100.00;94808.72;5036362;28;20039;-81
2022/02/17 01:52:13;;;;;;;0.60;0.10;;;;;;;10.09;100.00;94799.00;5053404;28;20318;-80
2022/02/17 01:54:43;;;;;;;0.30;0.10;;;;;;;10.09;100.00;94796.38;5014575;28;20018;-80
2022/02/17 01:57:12;;;;;;;0.30;0.10;;;;;;;10.13;100.00;94815.19;4997000;28;20036;-78
2022/02/17 01:59:41;;;;;;;0.43;0.10;;;;;;;10.15;100.00;94798.22;4998617;28;20115;-80
2022/02/17 02:02:10;;;;;;;0.20;0.10;;;;;;;10.11;100.00;94796.97;5027703;28;20038;-82
2022/02/17 02:04:37;;;;;;;0.00;0.00;;;;;;;10.10;100.00;94779.59;5039546;28;20056;-80
2022/02/17 02:07:05;;;;;;;0.07;0.03;;;;;;;10.05;100.00;94781.97;5042579;28;20041;-81
2022/02/17 02:09:32;;;;;;;0.10;0.10;;;;;;;9.96;100.00;94780.50;5032417;28;20164;-82
2022/02/17 02:12:11;;;;;;;0.10;0.00;;;;;;;9.94;100.00;94790.38;5032349;28;20041;-81
2022/02/17 02:14:59;;;;;;;0.53;0.10;;;;;;;10.01;100.00;94772.84;5021595;28;20444;-80
2022/02/17 02:17:29;;;;;;;0.60;0.00;;;;;;;10.00;100.00;94763.38;5036250;28;20550;-80
2022/02/17 02:19:57;;;;;;;0.20;0.10;;;;;;;10.00;100.00;94757.31;5051601;28;20090;-80
2022/02/17 02:22:26;;;;;;;0.00;0.00;;;;;;;9.99;100.00;94743.34;5036650;28;20013;-83
2022/02/17 02:24:52;;;;;;;0.33;0.00;;;;;;;9.91;100.00;94748.75;5026258;28;20478;-80
2022/02/17 02:27:18;;;;;;;0.03;0.03;;;;;;;9.89;100.00;94751.59;5015142;28;20080;-81
2022/02/17 02:29:44;;;;;;;0.10;0.00;;;;;;;9.89;100.00;94742.88;5015645;28;20033;-80
2022/02/17 02:32:11;;;;;;;0.00;0.00;;;;;;;9.87;100.00;94747.50;4995344;28;20133;-82
2022/02/17 02:34:37;;;;;;;0.00;0.00;;;;;;;9.84;100.00;94753.16;5034556;28;20403;-81
2022/02/17 02:37:05;;;;;;;0.10;0.10;;;;;;;9.76;100.00;94748.84;5025665;28;20033;-81
2022/02/17 02:39:32;;;;;;;0.00;0.00;;;;;;;9.82;100.00;94745.44;5011492;28;20246;-81
2022/02/17 02:41:59;;;;;;;0.97;0.73;;;;;;;9.93;100.00;94743.31;5011747;28;20125;-80
2022/02/17 02:44:24;;;;;;;0.20;0.10;;;;;;;9.95;100.00;94713.22;5027925;28;20460;-81
2022/02/17 02:47:03;;;;;;;0.00;0.00;;;;;;;9.95;100.00;94755.22;5028745;28;20125;-82
2022/02/17 02:49:37;;;;;;;0.17;0.07;;;;;;;9.86;100.00;94745.91;5028019;28;20029;-82
2022/02/17 02:52:04;;;;;;;0.20;0.10;;;;;;;9.81;100.00;94743.03;5042108;28;20104;-81
2022/02/17 02:54:36;;;;;;;0.98;0.10;;;;;;;9.89;100.00;94716.59;5052124;28;20032;-80
2022/02/17 02:57:02;;;;;;;0.43;0.10;;;;;;;9.91;100.00;94701.47;5035938;28;20048;-80
2022/02/17 02:59:27;;;;;;;0.00;0.00;;;;;;;9.99;100.00;94740.72;5031519;28;20021;-82
2022/02/17 03:01:54;;;;;;;0.40;0.10;;;;;;;9.96;100.00;94711.41;5034196;28;20045;-82
2022/02/17 03:04:20;;;;;;;0.00;0.00;;;;;;;9.96;100.00;94717.50;5017230;28;20137;-81
2022/02/17 03:06:46;;;;;;;0.20;0.00;;;;;;;9.97;100.00;94723.56;5034256;28;20045;-80
2022/02/17 03:09:15;;;;;;;0.10;0.10;;;;;;;9.89;100.00;94692.97;5033952;28;20126;-80
2022/02/17 03:11:40;;;;;;;0.50;0.10;;;;;;;9.90;100.00;94689.38;5035103;28;20047;-81
2022/02/17 03:14:06;;;;;;;0.20;0.10;;;;;;;9.90;100.00;94690.19;5035195;28;20037;-81
2022/02/17 03:16:35;;;;;;;0.00;0.00;;;;;;;9.95;100.00;94707.97;5020601;28;20099;-80
2022/02/17 03:19:01;;;;;;;0.13;0.00;;;;;;;9.93;100.00;94717.88;5037085;28;20037;-80
2022/02/17 03:21:27;;;;;;;0.57;0.10;;;;;;;9.95;100.00;94713.22;5070904;28;20045;-82
2022/02/17 03:23:53;;;;;;;1.97;0.10;;;;;;;9.92;100.00;94703.09;5048716;28;20032;-79
2022/02/17 03:26:20;;;;;;;0.10;0.03;;;;;;;9.91;100.00;94701.47;5032853;28;20107;-80
2022/02/17 03:28:56;;;;;;;0.10;0.10;;;;;;;9.86;100.00;94685.50;5026613;28;20040;-80
2022/02/17 03:31:23;;;;;;;0.60;0.10;;;;;;;9.84;100.00;94680.44;5050553;28;20406;-80
2022/02/17 03:34:04;;;;;;;0.27;0.07;;;;;;;9.83;100.00;94712.16;5035596;28;20033;-80
2022/02/17 03:36:31;;;;;;;0.67;0.07;;;;;;;9.79;100.00;94719.59;5050485;28;20047;-80
2022/02/17 03:38:57;;;;;;;0.00;0.00;;;;;;;9.77;100.00;94721.59;5033397;28;20036;-80
2022/02/17 03:41:32;;;;;;;0.00;0.00;;;;;;;9.79;100.00;94724.00;5035878;28;20128;-80
2022/02/17 03:44:09;;;;;;;0.77;0.00;;;;;;;9.84;100.00;94711.13;5031695;28;20080;-79
2022/02/17 03:46:35;;;;;;;4.73;0.10;;;;;;;9.89;100.00;94708.72;5026889;28;20037;-80
2022/02/17 03:49:02;;;;;;;1.27;0.10;;;;;;;9.88;100.00;94704.50;5037062;28;20036;-82
2022/02/17 03:51:28;;;;;;;0.13;0.00;;;;;;;9.88;100.00;94723.69;5036898;28;20486;-81
2022/02/17 03:53:57;;;;;;;0.37;0.10;;;;;;;9.90;100.00;94707.75;5053289;28;20067;-80
2022/02/17 03:56:23;;;;;;;0.50;0.00;;;;;;;9.97;100.00;94711.22;5028640;28;20033;-79
2022/02/17 03:59:08;;;;;;;0.27;0.10;;;;;;;9.93;100.00;94706.56;5034299;28;20099;-80
2022/02/17 04:01:40;;;;;;;0.30;0.10;;;;;;;9.89;100.00;94727.13;5064807;28;20124;-79
2022/02/17 04:04:10;;;;;;;0.83;0.20;;;;;;;9.85;100.00;94703.06;5036705;28;20036;-80
2022/02/17 04:06:38;;;;;;;0.00;0.00;;;;;;;9.86;100.00;94703.88;5038114;28;20129;-80
2022/02/17 04:09:06;;;;;;;0.10;0.00;;;;;;;9.85;100.00;94697.81;5036278;28;20086;-80
2022/02/17 04:11:33;;;;;;;0.43;0.00;;;;;;;9.84;100.00;94690.13;5018198;28;20128;-80
2022/02/17 04:14:00;;;;;;;0.07;0.00;;;;;;;9.86;100.00;94709.16;5018353;28;20038;-79
2022/02/17 04:16:33;;;;;;;1.80;0.10;;;;;;;9.83;100.00;94709.53;5067183;28;20394;-79
2022/02/17 04:19:14;;;;;;;1.50;0.10;;;;;;;9.76;100.00;94698.13;5020316;28;20033;-80
2022/02/17 04:22:05;;;;;;;0.03;0.03;;;;;;;9.79;100.00;94701.22;5027552;28;20045;-79
2022/02/17 04:24:57;;;;;;;0.30;0.10;;;;;;;9.78;100.00;94699.56;5054258;28;20116;-82
2022/02/17 04:27:25;;;;;;;0.00;0.00;;;;;;;9.71;100.00;94705.78;5053803;28;20028;-82
2022/02/17 04:30:04;;;;;;;0.77;0.10;;;;;;;9.76;100.00;94716.53;5041514;28;20028;-82
2022/02/17 04:32:29;;;;;;;0.30;0.20;;;;;;;9.89;100.00;94719.22;5037435;28;20043;-80
2022/02/17 04:34:55;;;;;;;0.00;0.00;;;;;;;9.87;100.00;94706.31;5038091;28;20029;-81
2022/02/17 04:37:21;;;;;;;0.00;0.00;;;;;;;9.98;100.00;94707.59;5054667;28;20038;-79
2022/02/17 04:39:47;;;;;;;2.30;0.20;;;;;;;9.82;100.00;94692.94;5054724;28;20112;-80
2022/02/17 04:42:18;;;;;;;4.17;1.80;;;;;;;9.71;100.00;94705.78;5038555;28;20048;-80
2022/02/17 04:44:46;;;;;;;0.20;0.03;;;;;;;9.75;100.00;94709.66;5055283;28;20135;-80
2022/02/17 04:47:12;;;;;;;0.10;0.10;;;;;;;9.65;100.00;94702.09;5055160;28;20037;-79
2022/02/17 04:49:38;;;;;;;0.10;0.10;;;;;;;9.63;100.00;94714.63;5038772;28;20071;-79
2022/02/17 04:52:05;;;;;;;0.10;0.10;;;;;;;9.69;100.00;94703.34;5055829;28;20025;-81
2022/02/17 04:54:31;;;;;;;0.93;0.00;;;;;;;9.68;100.00;94713.03;5038548;28;20085;-80
2022/02/17 04:57:00;;;;;;;2.40;1.33;;;;;;;9.72;100.00;94702.97;5053462;28;20033;-80
2022/02/17 04:59:29;;;;;;;3.67;1.87;;;;;;;9.64;100.00;94703.94;5037479;28;20033;-79
2022/02/17 05:01:56;;;;;;;0.93;0.40;;;;;;;9.57;100.00;94728.50;5038056;28;20036;-78
2022/02/17 05:04:32;;;;;;;1.03;0.40;;;;;;;9.50;100.00;94722.41;5038325;28;20052;-82
2022/02/17 05:07:04;;;;;;;0.60;0.40;;;;;;;9.40;100.00;94713.03;5037178;28;20524;-80
2022/02/17 05:09:30;;;;;;;0.00;0.00;;;;;;;9.39;100.00;94718.47;5036859;28;20041;-79
2022/02/17 05:11:56;;;;;;;0.00;0.00;;;;;;;9.47;100.00;94728.84;5038050;28;20037;-81
2022/02/17 05:14:24;;;;;;;0.00;0.00;;;;;;;9.57;100.00;94739.81;5054561;28;20040;-79
2022/02/17 05:16:50;;;;;;;1.10;0.77;;;;;;;9.56;100.00;94738.19;5024982;28;20039;-80
2022/02/17 05:19:16;;;;;;;0.03;0.03;;;;;;;9.62;100.00;94753.19;5036194;28;20029;-78
2022/02/17 05:22:04;;;;;;;1.63;0.40;;;;;;;9.57;100.00;94744.25;5035139;28;20041;-79
2022/02/17 05:24:48;;;;;;;0.50;0.20;;;;;;;9.48;100.00;94727.00;5035682;28;20048;-80
2022/02/17 05:27:36;;;;;;;1.03;0.33;;;;;;;9.42;100.00;94753.03;5069286;28;20095;-82
2022/02/17 05:30:19;;;;;;;1.55;0.32;;;;;;;9.37;100.00;94751.94;5020884;28;20121;-81
2022/02/17 05:32:57;;;;;;;0.50;0.30;;;;;;;9.35;100.00;94754.75;5036136;28;20037;-80
2022/02/17 05:35:29;;;;;;;0.17;0.13;;;;;;;9.36;100.00;94764.25;5022967;28;20124;-79
2022/02/17 05:38:13;;;;;;;0.10;0.10;;;;;;;9.49;100.00;94786.34;5038086;28;20052;-79
2022/02/17 05:41:02;;;;;;;0.93;0.10;;;;;;;9.48;100.00;94796.03;5046649;28;20400;-81
2022/02/17 05:43:28;;;;;;;0.50;0.30;;;;;;;9.48;100.00;94782.13;5038490;28;20037;-79
2022/02/17 05:45:53;;;;;;;0.30;0.20;;;;;;;9.37;100.00;94778.19;5021184;28;20045;-79
2022/02/17 05:48:19;;;;;;;1.20;0.10;;;;;;;9.32;100.00;94786.63;5070530;28;20040;-78
2022/02/17 05:50:46;;;;;;;0.97;0.10;;;;;;;9.19;100.00;94800.41;5069183;28;20175;-79
2022/02/17 05:53:11;;;;;;;0.23;0.00;;;;;;;9.11;100.00;94799.69;5035398;28;20068;-79
2022/02/17 05:55:38;;;;;;;3.20;0.27;;;;;;;9.01;100.00;94820.97;5034935;28;20128;-80
2022/02/17 05:58:04;;;;;;;0.40;0.10;;;;;;;9.00;100.00;94847.41;5018905;28;20564;-81
2022/02/17 06:00:30;;;;;;;1.17;0.20;;;;;;;8.97;100.00;94851.19;5020263;28;20081;-78
2022/02/17 06:02:55;;;;;;;2.07;0.20;;;;;;;8.88;100.00;94853.09;5035490;28;20033;-79
2022/02/17 06:05:21;;;;;;;2.47;0.30;;;;;;;8.85;100.00;94858.72;5069089;28;20126;-81
2022/02/17 06:07:47;;;;;;;0.57;0.20;;;;;;;8.85;100.00;94884.09;5018147;28;20030;-80
2022/02/17 06:10:12;;;;;;;3.83;0.40;;;;;;;8.86;100.00;94894.41;5020769;28;20033;-79
2022/02/17 06:12:43;;;;;;;1.83;0.70;;;;;;;8.86;100.00;94883.13;5021614;28;20101;-82
2022/02/17 06:15:12;;;;;;;5.00;0.70;;;;;;;8.79;100.00;94897.94;5038599;28;20036;-81
2022/02/17 06:17:38;;;;;;;2.30;0.60;;;;;;;8.63;100.00;94936.44;5040850;28;20033;-77
2022/02/17 06:20:05;;;;;;;3.23;0.90;;;;;;;8.59;100.00;94927.31;5030951;28;20422;-78
2022/02/17 06:22:31;;;;;;;4.77;1.30;;;;;;;8.57;100.00;94933.72;5041183;28;20033;-79
2022/02/17 06:24:57;;;;;;;3.50;0.63;;;;;;;8.49;100.00;94958.19;5033116;28;20147;-79
2022/02/17 06:27:23;;;;;;;3.60;0.80;;;;;;;8.37;100.00;94939.41;5067891;28;20030;-78
2022/02/17 06:29:48;;;;;;;5.10;1.10;;;;;;;8.36;100.00;94943.03;5068995;28;20493;-79
2022/02/17 06:32:14;;;;;;;7.33;1.47;;;;;;;8.40;100.00;94939.09;5035175;28;20029;-78
2022/02/17 06:34:41;;;;;;;7.07;0.90;;;;;;;8.40;100.00;94935.66;5036222;28;20056;-79
2022/02/17 06:37:07;;;;;;;8.47;1.50;;;;;;;8.30;100.00;94940.31;5068308;28;20080;-78
2022/02/17 06:39:32;;;;;;;3.90;1.20;;;;;;;8.34;100.00;94949.44;5036337;28;20032;-80
2022/02/17 06:41:58;;;;;;;4.77;0.90;;;;;;;8.36;100.00;94955.31;5035784;28;20037;-79
2022/02/17 06:44:24;;;;;;;5.30;1.00;;;;;;;8.36;100.00;94950.09;5019014;28;20030;-79
2022/02/17 06:46:50;;;;;;;3.87;1.30;;;;;;;8.26;100.00;94968.66;5019534;28;20122;-79
2022/02/17 06:49:16;;;;;;;5.40;1.20;;;;;;;8.29;100.00;94977.97;5019489;28;20036;-79
2022/02/17 06:51:42;;;;;;;2.97;1.07;;;;;;;8.23;100.00;94985.53;5035502;28;20285;-80
2022/02/17 06:54:08;;;;;;;7.77;1.20;;;;;;;8.18;100.00;94993.13;5019012;28;20026;-78
2022/02/17 06:56:33;;;;;;;8.00;1.10;;;;;;;8.31;100.00;94997.75;5018008;28;20033;-77
2022/02/17 06:58:59;;;;;;;4.37;1.03;;;;;;;8.32;100.00;95011.69;5067911;28;20037;-79
2022/02/17 07:01:25;;;;;;;11.00;2.70;;;;;;;8.31;100.00;95012.66;5018784;28;20625;-79
2022/02/17 07:03:51;;;;;;;10.33;3.83;;;;;;;8.23;100.00;95011.72;5034236;28;20040;-80
2022/02/17 07:06:18;;;;;;;7.03;2.37;;;;;;;8.20;100.00;95011.25;5017013;28;20029;-80
2022/02/17 07:08:44;;;;;;;7.07;1.80;;;;;;;8.19;100.00;95010.44;5017858;28;20180;-80
2022/02/17 07:11:10;;;;;;;7.23;1.53;;;;;;;8.25;100.00;95008.94;5016962;28;20084;-79
2022/02/17 07:13:35;;;;;;;8.17;1.50;;;;;;;8.21;100.00;95018.13;5033003;28;20092;-80
2022/02/17 07:16:01;;;;;;;6.43;1.37;;;;;;;8.20;100.00;95027.78;5017499;28;20041;-79
2022/02/17 07:18:28;;;;;;;8.30;2.60;;;;;;;8.24;100.00;95015.16;5036209;28;20372;-79
2022/02/17 07:20:54;;;;;;;6.97;1.50;;;;;;;8.26;100.00;95028.91;5021267;28;20079;-79
2022/02/17 07:23:23;;;;;;;8.43;2.00;;;;;;;8.23;100.00;95037.91;5037487;28;20037;-80
2022/02/17 07:25:50;;;;;;;12.17;2.33;;;;;;;8.17;100.00;95046.47;5020916;28;20037;-80
2022/02/17 07:28:16;;;;;;;6.63;1.80;;;;;;;8.18;100.00;95045.50;5037117;28;20037;-80
2022/02/17 07:30:44;;;;;;;9.03;1.53;;;;;;;8.27;100.00;95054.09;5020724;28;20033;-80
2022/02/17 07:33:11;;;;;;;9.67;1.60;;;;;;;8.26;100.00;95063.75;5037148;28;20441;-80
2022/02/17 07:35:36;;;;;;;11.27;1.60;;;;;;;8.32;100.00;95066.69;5021006;28;20101;-80
2022/02/17 07:38:02;;;;;;;8.77;1.40;;;;;;;8.34;100.00;95062.06;5037845;28;20048;-79
2022/02/17 07:40:28;;;;;;;6.97;1.73;;;;;;;8.33;100.00;95068.31;5038650;28;20101;-80
2022/02/17 07:42:55;;;;;;;8.40;1.80;;;;;;;8.30;100.00;95085.19;5037575;28;20094;-80
2022/02/17 07:45:21;;;;;;;10.60;1.80;;;;;;;8.32;100.00;95082.41;5037109;28;20067;-79
2022/02/17 07:47:48;;;;;;;8.87;1.57;;;;;;;8.32;100.00;95071.94;5071150;28;20029;-80
2022/02/17 07:50:19;;;;;;;10.37;1.70;;;;;;;8.38;100.00;95061.56;5039018;28;20103;-82
2022/02/17 07:52:45;;;;;;;10.27;1.60;;;;;;;8.51;100.00;95092.44;5020402;28;20398;-80
2022/02/17 07:55:13;;;;;;;6.80;2.53;;;;;;;8.54;100.00;95093.91;5037319;28;20128;-79
2022/02/17 07:57:39;;;;;;;8.77;1.60;;;;;;;8.53;100.00;95093.09;5039150;28;20144;-80
2022/02/17 08:00:07;;;;;;;11.13;2.97;;;;;;;8.42;100.00;95099.56;5037541;28;20037;-78
2022/02/17 08:02:38;;;;;;;11.40;1.88;;;;;;;8.46;100.00;95134.88;5039684;28;20049;-80
2022/02/17 08:05:04;;;;;;;14.60;2.30;;;;;;;9.01;100.00;95117.28;5039430;28;20528;-78
2022/02/17 08:07:31;;;;;;;12.43;1.83;;;;;;;9.15;100.00;95111.28;5037383;28;20041;-79
2022/02/17 08:09:58;;;;;;;15.73;2.73;;;;;;;9.80;100.00;95099.28;5037925;28;20038;-80
2022/02/17 08:12:24;;;;;;;8.00;1.77;;;;;;;10.03;100.00;95083.41;5038872;28;20032;-80
2022/02/17 08:14:51;;;;;;;11.30;2.13;;;;;;;10.18;98.93;95100.94;5020838;28;20037;-80
2022/02/17 08:17:19;;;;;;;9.10;1.97;;;;;;;9.57;100.00;95107.25;5020639;28;20040;-80
2022/02/17 08:19:45;;;;;;;10.10;2.23;;;;;;;9.75;98.33;95111.31;5020012;28;20554;-80
2022/02/17 08:22:11;;;;;;;12.33;2.43;;;;;;;9.34;100.00;95103.88;5036771;28;20116;-81
2022/02/17 08:24:37;;;;;;;13.13;2.97;;;;;;;9.18;100.00;95131.88;5020950;28;20049;-80
2022/02/17 08:27:03;;;;;;;10.00;2.27;;;;;;;9.24;99.70;95132.19;5037639;28;20033;-80
2022/02/17 08:29:31;;;;;;;7.23;1.60;;;;;;;9.13;100.00;95144.72;5020342;28;20521;-80
2022/02/17 08:31:58;;;;;;;14.37;2.20;;;;;;;9.03;100.00;95149.41;5035638;28;20135;-80
2022/02/17 08:34:24;;;;;;;8.37;1.87;;;;;;;8.95;100.00;95125.84;5020863;28;20033;-82
2022/02/17 08:36:52;;;;;;;13.60;2.00;;;;;;;9.86;94.42;95147.66;5020624;28;20041;-80
2022/02/17 08:39:18;;;;;;;12.87;2.10;;;;;;;10.47;88.73;95158.75;5036784;28;20029;-80
2022/02/17 08:41:44;;;;;;;9.17;1.60;;;;;;;10.03;90.70;95162.22;5020467;28;20038;-80
2022/02/17 08:44:09;;;;;;;8.23;1.53;;;;;;;9.50;89.18;95171.97;5020270;28;20033;-79
2022/02/17 08:46:35;;;;;;;10.00;2.10;;;;;;;10.01;88.97;95185.22;5036608;28;20048;-80
2022/02/17 08:49:01;;;;;;;12.53;3.23;;;;;;;9.82;89.64;95193.63;5036777;28;20064;-80
2022/02/17 08:51:29;;;;;;;10.17;2.13;;;;;;;9.48;90.69;95194.13;5036176;28;20364;-80
2022/02/17 08:53:58;;;;;;;7.87;2.57;;;;;;;9.18;93.14;95192.22;5035883;28;20072;-80
2022/02/17 08:56:24;;;;;;;11.10;2.60;;;;;;;9.05;94.95;95204.28;5018954;28;20461;-80
2022/02/17 08:58:52;;;;;;;8.20;2.00;;;;;;;9.03;93.68;95201.84;5019418;28;20587;-82
2022/02/17 09:01:18;;;;;;;8.83;1.83;;;;;;;9.01;93.28;95193.34;5036151;28;20029;-81
2022/02/17 09:03:44;;;;;;;11.43;2.10;;;;;;;8.96;91.81;95216.66;5035723;28;20478;-80
2022/02/17 09:06:10;;;;;;;8.87;1.90;;;;;;;8.96;91.32;95179.94;5019292;28;20065;-80
2022/02/17 09:08:36;;;;;;;11.63;2.13;;;;;;;9.79;86.65;95196.59;5018787;28;20037;-81
2022/02/17 09:11:02;;;;;;;12.40;2.20;;;;;;;10.37;82.41;95221.28;5035471;28;20044;-80
2022/02/17 09:13:29;;;;;;;12.07;2.10;;;;;;;10.47;79.24;95208.69;5018720;28;20033;-81
2022/02/17 09:15:55;;;;;;;9.03;2.37;;;;;;;10.97;79.49;95222.81;5034267;28;20544;-79
2022/02/17 09:18:21;;;;;;;11.97;2.03;;;;;;;11.34;78.15;95228.84;5035630;28;20527;-80
2022/02/17 09:20:47;;;;;;;7.40;1.80;;;;;;;10.71;75.97;95231.22;5018436;28;20061;-82
2022/02/17 09:23:13;;;;;;;8.70;2.27;;;;;;;10.27;79.64;95233.91;5035380;28;20098;-80
2022/02/17 09:25:39;;;;;;;14.03;2.17;;;;;;;11.00;77.40;95246.13;5018216;28;20499;-80
2022/02/17 09:28:06;;;;;;;13.00;3.77;;;;;;;10.59;73.77;95262.41;5034818;28;20037;-78
2022/02/17 09:30:32;;;;;;;15.37;3.07;;;;;;;10.85;68.62;95243.50;5035437;28;20124;-81
2022/02/17 09:32:58;;;;;;;13.93;3.53;;;;;;;11.25;65.90;95235.22;5034882;28;20044;-80
2022/02/17 09:35:23;;;;;;;13.43;2.40;;;;;;;11.40;66.60;95259.69;5034044;28;20033;-80
2022/02/17 09:37:49;;;;;;;15.47;2.57;;;;;;;10.88;61.01;95229.19;5035009;28;20037;-80
2022/02/17 09:40:20;;;;;;;12.50;2.63;;;;;;;11.40;60.80;95240.41;5019142;28;20495;-80
2022/02/17 09:42:49;;;;;;;12.03;2.53;;;;;;;11.61;58.33;95234.34;5034837;28;20091;-79
2022/02/17 09:45:16;;;;;;;11.80;2.93;;;;;;;11.39;57.97;95242.25;5018545;28;20030;-80
2022/02/17 09:47:43;;;;;;;13.00;3.10;;;;;;;11.37;57.91;95282.91;5019435;28;20037;-79
2022/02/17 09:50:14;;;;;;;15.60;3.03;;;;;;;11.30;56.55;95231.03;5033627;28;20064;-81
2022/02/17 09:52:42;;;;;;;14.97;3.10;;;;;;;11.12;59.25;95283.25;5024509;28;20053;-82
2022/02/17 09:55:16;;;;;;;12.53;2.77;;;;;;;11.63;55.76;95275.25;5021784;28;20494;-81
2022/02/17 09:57:42;;;;;;;15.07;3.10;;;;;;;11.42;56.76;95283.97;5013825;28;20105;-80
2022/02/17 10:00:11;;;;;;;11.47;2.77;;;;;;;11.54;55.95;95287.75;5013394;28;20048;-81
2022/02/17 10:02:41;;;;;;;14.00;3.47;;;;;;;10.58;58.87;95313.34;5014254;28;20030;-82
2022/02/17 10:05:07;;;;;;;12.17;2.40;;;;;;;9.98;60.54;95301.13;5013234;28;20041;-80
2022/02/17 10:07:45;;;;;;;15.00;3.07;;;;;;;9.81;63.12;95320.66;5014318;28;20526;-80
2022/02/17 10:10:23;;;;;;;15.07;2.63;;;;;;;9.64;61.88;95305.03;5015207;28;20065;-83
2022/02/17 10:12:59;;;;;;;15.07;3.23;;;;;;;9.41;63.03;95320.78;5046986;28;20040;-80
2022/02/17 10:15:28;;;;;;;15.17;3.20;;;;;;;9.35;65.29;95325.91;5036894;28;20040;-80
2022/02/17 10:18:05;;;;;;;14.63;2.63;;;;;;;9.26;65.17;95334.84;5053687;28;20025;-80
2022/02/17 10:20:53;;;;;;;15.40;3.20;;;;;;;9.15;65.30;95334.25;5054844;28;20115;-80
2022/02/17 10:23:20;;;;;;;11.87;3.20;;;;;;;9.18;66.35;95346.16;5057409;28;20033;-78
2022/02/17 10:26:08;;;;;;;19.67;3.63;;;;;;;9.70;64.28;95326.34;5035851;28;20155;-78
2022/02/17 10:28:41;;;;;;;15.10;3.43;;;;;;;10.10;61.79;95335.69;5047223;28;20124;-78
2022/02/17 10:31:08;;;;;;;17.30;3.00;;;;;;;9.53;64.83;95317.78;5039808;28;20124;-79
2022/02/17 10:33:43;;;;;;;17.47;3.23;;;;;;;9.27;65.20;95341.72;5034856;28;20038;-78
2022/02/17 10:36:10;;;;;;;21.90;3.27;;;;;;;9.00;65.46;95335.94;5031296;28;20065;-78
2022/02/17 10:38:36;;;;;;;20.63;4.33;;;;;;;9.08;67.52;95361.31;5034852;28;20032;-79
2022/02/17 10:41:02;;;;;;;13.30;3.40;;;;;;;9.09;66.57;95349.84;5016077;28;20034;-78
2022/02/17 10:43:29;;;;;;;15.00;3.10;;;;;;;8.96;67.90;95356.44;5016926;28;20034;-78
2022/02/17 10:46:04;;;;;;;20.07;5.60;;;;;;;8.96;68.70;95358.25;5013986;28;20034;-79
2022/02/17 10:48:30;;;;;;;18.63;3.87;;;;;;;8.84;68.27;95364.84;5018003;28;20034;-79
2022/02/17 10:51:13;;;;;;;16.03;3.10;;;;;;;8.87;68.73;95373.19;5015888;28;20053;-77
2022/02/17 10:53:45;;;;;;;18.30;3.63;;;;;;;8.89;69.79;95373.03;5014699;28;20041;-78
2022/02/17 10:56:13;;;;;;;19.70;3.07;;;;;;;8.91;69.91;95368.44;5016011;28;20475;-78
2022/02/17 10:58:47;;;;;;;20.80;4.17;;;;;;;9.00;67.91;95358.72;5018743;28;20029;-79
2022/02/17 11:01:14;;;;;;;15.73;3.17;;;;;;;8.95;68.48;95354.81;5068668;28;20033;-79
2022/02/17 11:03:42;;;;;;;17.67;4.10;;;;;;;8.94;68.55;95386.44;5016818;28;20029;-78
2022/02/17 11:06:13;;;;;;;20.90;4.80;;;;;;;9.55;67.69;95376.13;5017333;28;20032;-81
2022/02/17 11:08:42;;;;;;;15.32;4.03;;;;;;;9.31;68.99;95382.34;5034682;28;20732;-79
2022/02/17 11:11:09;;;;;;;19.63;3.83;;;;;;;9.15;70.17;95373.59;5019669;28;20029;-79
2022/02/17 11:13:35;;;;;;;21.03;4.40;;;;;;;9.01;70.91;95390.00;5034974;28;20040;-79
2022/02/17 11:16:03;;;;;;;11.07;2.30;;;;;;;8.88;72.14;95379.25;5037005;28;20037;-82
2022/02/17 11:18:31;;;;;;;15.87;3.10;;;;;;;8.79;76.85;95385.53;5040026;28;20051;-78
2022/02/17 11:20:57;;;;;;;16.53;2.90;;;;;;;8.29;80.97;95376.13;5053904;28;20045;-79
2022/02/17 11:23:33;;;;;;;18.20;2.83;;;;;;;8.07;92.25;95393.31;5038193;28;20026;-78
2022/02/17 11:26:01;;;;;;;13.97;3.00;;;;;;;7.86;92.73;95394.63;5038002;28;20029;-80
2022/02/17 11:28:36;;;;;;;11.77;2.40;;;;;;;7.98;92.01;95379.38;5017945;28;20030;-79
2022/02/17 11:31:10;;;;;;;16.77;3.70;;;;;;;8.06;92.71;95389.06;5017115;28;20041;-79
2022/02/17 11:33:53;;;;;;;18.00;3.13;;;;;;;8.02;93.56;95389.38;5069874;28;20033;-79
2022/02/17 11:36:19;;;;;;;12.52;2.53;;;;;;;8.21;92.62;95376.91;5036509;28;20094;-79
2022/02/17 11:38:50;;;;;;;16.20;3.53;;;;;;;8.76;90.31;95396.34;5036915;28;20148;-79